Shippenville, Pennsylvania
Current Conditions -  °F | °C
As of 4:15 AM on Thursday 18 Dec 2014 (Local Time) from KFKL Reporting Station
Overcast Overcast  
Wind Chill: 16°   Ceiling: 1500
Heat Index: 27°   Visibility: 10mi
Dew Point: 19°   Wind: 13mph
Humidity: 74%   Direction: 270°W
Pressure: 30.12"   Gusts: 18mph
Location:  41.25°N, 79.46°W
Report Text: KFKL 180915Z AUTO 27011G16KT 10SM BKN015 OVC020 M03/M07 A3012 RMK AO1
Loading
Personal Weather Stations






























Interactive Weather Map New forecast layout! Learn more

10-Day Weather Forecast

Advertisements
Track Severe Weather on mobile